PWSweather.com
Personal Weather Stations
Station Observations
RAINWISE1
Rainwise Factory, Bar Harbor, ME 04609

Rainwise FactoryBar Harbor, ME 04609

Lat: 44.3897429696629, Lon: -68.2077813148499

Elevation: 29

Station Type: Rainwise MK-III

www.rainwise.com

High Low Average
Temperature 78.6°F25.9°C 51.7°F10.9°C 67.1°F19.5°C
Dew Point 64.6°F18.1°C 50.6°F10.3°C 54.4°F12.4°C
Winds 6.4 mph 10.3 kmh Calm Calm 2.0 mph SSE3.2 kmh SSE
Wind Gusts 11.1 mph17.9 kmh -- 4.0 mph6.4 kmh
Humidity 98% 42% 67%
Pressure 30.04 in1017.3 mb 29.89 in1012.2 mb -
Precipitation 0.00 in0.0 mm - -
Hour Temp Dew Point Humidity Winds Wind Gusts Pressure Precip Precip Rate Daily Precip Total
12:04 AM 64.0°F17.8°C 62.5°F16.9°C 95% 1.2 mph NNW1.9 kmh NNW 1.8 mph2.9 kmh 29.90 in1012.5 mb 0.00 in0.0 mm 0.00 in0.0 mm 0.00 in0.0 mm
12:09 AM 64.2°F17.9°C 62.7°F17.1°C 95% 0.2 mph NNE0.3 kmh NNE 1.3 mph2.1 kmh 29.90 in1012.5 mb 0.00 in0.0 mm 0.00 in0.0 mm 0.00 in0.0 mm
12:14 AM 64.5°F18.1°C 63.3°F17.4°C 96% 1.0 mph NNE1.6 kmh NNE 1.6 mph2.6 kmh 29.90 in1012.5 mb 0.00 in0.0 mm 0.00 in0.0 mm 0.00 in0.0 mm
12:19 AM 64.7°F18.2°C 63.5°F17.5°C 96% 1.5 mph NNW2.4 kmh NNW 1.8 mph2.9 kmh 29.90 in1012.5 mb 0.00 in0.0 mm 0.00 in0.0 mm 0.00 in0.0 mm
12:24 AM 64.9°F18.3°C 64.0°F17.8°C 97% 1.3 mph NNW2.1 kmh NNW 1.8 mph2.9 kmh 29.90 in1012.5 mb 0.00 in0.0 mm 0.00 in0.0 mm 0.00 in0.0 mm
12:29 AM 65.0°F18.3°C 64.1°F17.8°C 97% 0.5 mph NNW0.8 kmh NNW 1.1 mph1.8 kmh 29.90 in1012.5 mb 0.00 in0.0 mm 0.00 in0.0 mm 0.00 in0.0 mm
12:34 AM 65.0°F18.3°C 64.1°F17.8°C 97% 0.3 mph NNW0.5 kmh NNW 1.3 mph2.1 kmh 29.89 in1012.2 mb 0.00 in0.0 mm 0.00 in0.0 mm 0.00 in0.0 mm
12:39 AM 64.7°F18.2°C 63.8°F17.7°C 97% 0.2 mph NNW0.3 kmh NNW 1.1 mph1.8 kmh 29.89 in1012.2 mb 0.00 in0.0 mm 0.00 in0.0 mm 0.00 in0.0 mm
12:44 AM 64.7°F18.2°C 63.8°F17.7°C 97% 0.5 mph NNW0.8 kmh NNW 1.8 mph2.9 kmh 29.89 in1012.2 mb 0.00 in0.0 mm 0.00 in0.0 mm 0.00 in0.0 mm
12:49 AM 64.9°F18.3°C 64.0°F17.8°C 97% Calm Calm -- 29.89 in1012.2 mb 0.00 in0.0 mm 0.00 in0.0 mm 0.00 in0.0 mm
12:54 AM 64.8°F18.2°C 63.9°F17.7°C 97% 0.2 mph NNW0.3 kmh NNW 1.3 mph2.1 kmh 29.89 in1012.2 mb 0.00 in0.0 mm 0.00 in0.0 mm 0.00 in0.0 mm
12:59 AM 64.7°F18.2°C 63.8°F17.7°C 97% 0.8 mph NNW1.3 kmh NNW 1.6 mph2.6 kmh 29.89 in1012.2 mb 0.00 in0.0 mm 0.00 in0.0 mm 0.00 in0.0 mm
01:04 AM 64.6°F18.1°C 63.7°F17.6°C 97% 1.0 mph NNW1.6 kmh NNW 1.6 mph2.6 kmh 29.89 in1012.2 mb 0.00 in0.0 mm 0.00 in0.0 mm 0.00 in0.0 mm
01:09 AM 64.5°F18.1°C 63.6°F17.6°C 97% 1.3 mph NNW2.1 kmh NNW 1.6 mph2.6 kmh 29.89 in1012.2 mb 0.00 in0.0 mm 0.00 in0.0 mm 0.00 in0.0 mm
01:14 AM 64.4°F18.0°C 63.5°F17.5°C 97% 1.2 mph NNW1.9 kmh NNW 1.8 mph2.9 kmh 29.90 in1012.5 mb 0.00 in0.0 mm 0.00 in0.0 mm 0.00 in0.0 mm
01:19 AM 64.4°F18.0°C 63.5°F17.5°C 97% 2.0 mph N3.2 kmh N 3.2 mph5.1 kmh 29.90 in1012.5 mb 0.00 in0.0 mm 0.00 in0.0 mm 0.00 in0.0 mm
01:24 AM 64.5°F18.1°C 63.9°F17.7°C 98% 2.3 mph NNW3.7 kmh NNW 3.2 mph5.1 kmh 29.90 in1012.5 mb 0.00 in0.0 mm 0.00 in0.0 mm 0.00 in0.0 mm
01:29 AM 64.7°F18.2°C 64.1°F17.8°C 98% 2.2 mph N3.5 kmh N 3.0 mph4.8 kmh 29.90 in1012.5 mb 0.00 in0.0 mm 0.00 in0.0 mm 0.00 in0.0 mm
01:34 AM 64.7°F18.2°C 64.1°F17.8°C 98% 1.3 mph NNW2.1 kmh NNW 1.8 mph2.9 kmh 29.90 in1012.5 mb 0.00 in0.0 mm 0.00 in0.0 mm 0.00 in0.0 mm
01:39 AM 64.9°F18.3°C 64.3°F17.9°C 98% 2.9 mph NE4.7 kmh NE 4.9 mph7.9 kmh 29.90 in1012.5 mb 0.00 in0.0 mm 0.00 in0.0 mm 0.00 in0.0 mm
01:44 AM 65.1°F18.4°C 64.5°F18.1°C 98% 1.9 mph N3.1 kmh N 3.2 mph5.1 kmh 29.90 in1012.5 mb 0.00 in0.0 mm 0.00 in0.0 mm 0.00 in0.0 mm
01:49 AM 65.2°F18.4°C 64.6°F18.1°C 98% 0.9 mph N1.4 kmh N 2.1 mph3.4 kmh 29.90 in1012.5 mb 0.00 in0.0 mm 0.00 in0.0 mm 0.00 in0.0 mm
01:54 AM 65.0°F18.3°C 64.1°F17.8°C 97% 2.2 mph NNW3.5 kmh NNW 3.2 mph5.1 kmh 29.91 in1012.9 mb 0.00 in0.0 mm 0.00 in0.0 mm 0.00 in0.0 mm
01:59 AM 65.0°F18.3°C 64.1°F17.8°C 97% 2.4 mph NNW3.9 kmh NNW 3.7 mph6.0 kmh 29.91 in1012.9 mb 0.00 in0.0 mm 0.00 in0.0 mm 0.00 in0.0 mm
02:04 AM 64.9°F18.3°C 64.0°F17.8°C 97% 2.7 mph N4.3 kmh N 3.5 mph5.6 kmh 29.91 in1012.9 mb 0.00 in0.0 mm 0.00 in0.0 mm 0.00 in0.0 mm
02:09 AM 64.9°F18.3°C 63.7°F17.6°C 96% 2.9 mph N4.7 kmh N 4.0 mph6.4 kmh 29.92 in1013.2 mb 0.00 in0.0 mm 0.00 in0.0 mm 0.00 in0.0 mm
02:14 AM 64.9°F18.3°C 63.7°F17.6°C 96% 2.1 mph NNW3.4 kmh NNW 3.0 mph4.8 kmh 29.92 in1013.2 mb 0.00 in0.0 mm 0.00 in0.0 mm 0.00 in0.0 mm
02:19 AM 65.0°F18.3°C 63.5°F17.5°C 95% 1.9 mph N3.1 kmh N 3.0 mph4.8 kmh 29.92 in1013.2 mb 0.00 in0.0 mm 0.00 in0.0 mm 0.00 in0.0 mm
02:24 AM 65.2°F18.4°C 63.4°F17.4°C 94% 1.9 mph NNW3.1 kmh NNW 2.7 mph4.3 kmh 29.92 in1013.2 mb 0.00 in0.0 mm 0.00 in0.0 mm 0.00 in0.0 mm
02:29 AM 65.1°F18.4°C 63.3°F17.4°C 94% 2.5 mph N4.0 kmh N 4.4 mph7.1 kmh 29.92 in1013.2 mb 0.00 in0.0 mm 0.00 in0.0 mm 0.00 in0.0 mm
02:34 AM 65.0°F18.3°C 62.9°F17.2°C 93% 1.9 mph NNW3.1 kmh NNW 3.0 mph4.8 kmh 29.92 in1013.2 mb 0.00 in0.0 mm 0.00 in0.0 mm 0.00 in0.0 mm
02:39 AM 65.0°F18.3°C 62.3°F16.8°C 91% 3.0 mph NNW4.8 kmh NNW 4.4 mph7.1 kmh 29.92 in1013.2 mb 0.00 in0.0 mm 0.00 in0.0 mm 0.00 in0.0 mm
02:44 AM 65.0°F18.3°C 62.0°F16.7°C 90% 2.7 mph NNE4.3 kmh NNE 4.4 mph7.1 kmh 29.92 in1013.2 mb 0.00 in0.0 mm 0.00 in0.0 mm 0.00 in0.0 mm
02:49 AM 65.2°F18.4°C 61.2°F16.2°C 87% 2.1 mph N3.4 kmh N 2.7 mph4.3 kmh 29.91 in1012.9 mb 0.00 in0.0 mm 0.00 in0.0 mm 0.00 in0.0 mm
02:54 AM 65.3°F18.5°C 60.7°F15.9°C 85% 3.4 mph N5.5 kmh N 4.7 mph7.6 kmh 29.91 in1012.9 mb 0.00 in0.0 mm 0.00 in0.0 mm 0.00 in0.0 mm
02:59 AM 65.2°F18.4°C 59.6°F15.3°C 82% 3.3 mph N5.3 kmh N 5.5 mph8.9 kmh 29.91 in1012.9 mb 0.00 in0.0 mm 0.00 in0.0 mm 0.00 in0.0 mm
03:04 AM 65.2°F18.4°C 58.9°F14.9°C 80% 2.5 mph N4.0 kmh N 3.0 mph4.8 kmh 29.91 in1012.9 mb 0.00 in0.0 mm 0.00 in0.0 mm 0.00 in0.0 mm
03:09 AM 65.2°F18.4°C 58.9°F14.9°C 80% 2.5 mph N4.0 kmh N 3.2 mph5.1 kmh 29.92 in1013.2 mb 0.00 in0.0 mm 0.00 in0.0 mm 0.00 in0.0 mm
03:14 AM 65.0°F18.3°C 58.3°F14.6°C 79% 2.1 mph NNE3.4 kmh NNE 3.5 mph5.6 kmh 29.92 in1013.2 mb 0.00 in0.0 mm 0.00 in0.0 mm 0.00 in0.0 mm
03:19 AM 64.9°F18.3°C 58.2°F14.6°C 79% 1.7 mph N2.7 kmh N 2.7 mph4.3 kmh 29.92 in1013.2 mb 0.00 in0.0 mm 0.00 in0.0 mm 0.00 in0.0 mm
03:24 AM 64.9°F18.3°C 57.9°F14.4°C 78% 1.4 mph N2.3 kmh N 2.2 mph3.5 kmh 29.92 in1013.2 mb 0.00 in0.0 mm 0.00 in0.0 mm 0.00 in0.0 mm
03:29 AM 64.7°F18.2°C 57.7°F14.3°C 78% 2.2 mph NNE3.5 kmh NNE 3.5 mph5.6 kmh 29.92 in1013.2 mb 0.00 in0.0 mm 0.00 in0.0 mm 0.00 in0.0 mm
03:34 AM 64.5°F18.1°C 57.5°F14.2°C 78% 1.7 mph N2.7 kmh N 3.0 mph4.8 kmh 29.92 in1013.2 mb 0.00 in0.0 mm 0.00 in0.0 mm 0.00 in0.0 mm
03:39 AM 64.4°F18.0°C 57.4°F14.1°C 78% 2.8 mph N4.5 kmh N 3.7 mph6.0 kmh 29.92 in1013.2 mb 0.00 in0.0 mm 0.00 in0.0 mm 0.00 in0.0 mm
03:44 AM 64.4°F18.0°C 57.0°F13.9°C 77% 2.9 mph NNE4.7 kmh NNE 4.0 mph6.4 kmh 29.92 in1013.2 mb 0.00 in0.0 mm 0.00 in0.0 mm 0.00 in0.0 mm
03:49 AM 64.2°F17.9°C 56.5°F13.6°C 76% 2.9 mph NNE4.7 kmh NNE 4.7 mph7.6 kmh 29.92 in1013.2 mb 0.00 in0.0 mm 0.00 in0.0 mm 0.00 in0.0 mm
03:54 AM 64.2°F17.9°C 56.1°F13.4°C 75% 2.9 mph N4.7 kmh N 3.7 mph6.0 kmh 29.92 in1013.2 mb 0.00 in0.0 mm 0.00 in0.0 mm 0.00 in0.0 mm
03:59 AM 64.2°F17.9°C 55.7°F13.2°C 74% 3.3 mph N5.3 kmh N 5.7 mph9.2 kmh 29.92 in1013.2 mb 0.00 in0.0 mm 0.00 in0.0 mm 0.00 in0.0 mm
04:04 AM 64.2°F17.9°C 55.4°F13.0°C 73% 3.6 mph N5.8 kmh N 6.0 mph9.7 kmh 29.92 in1013.2 mb 0.00 in0.0 mm 0.00 in0.0 mm 0.00 in0.0 mm
04:09 AM 64.0°F17.8°C 54.8°F12.7°C 72% 3.2 mph N5.1 kmh N 4.9 mph7.9 kmh 29.92 in1013.2 mb 0.00 in0.0 mm 0.00 in0.0 mm 0.00 in0.0 mm
04:14 AM 63.8°F17.7°C 54.6°F12.6°C 72% 3.8 mph N6.1 kmh N 5.7 mph9.2 kmh 29.92 in1013.2 mb 0.00 in0.0 mm 0.00 in0.0 mm 0.00 in0.0 mm
04:19 AM 63.6°F17.6°C 54.0°F12.2°C 71% 2.3 mph N3.7 kmh N 3.2 mph5.1 kmh 29.92 in1013.2 mb 0.00 in0.0 mm 0.00 in0.0 mm 0.00 in0.0 mm
04:24 AM 63.5°F17.5°C 53.9°F12.2°C 71% 2.4 mph N3.9 kmh N 3.2 mph5.1 kmh 29.92 in1013.2 mb 0.00 in0.0 mm 0.00 in0.0 mm 0.00 in0.0 mm
04:29 AM 63.3°F17.4°C 53.7°F12.1°C 71% 2.1 mph NNE3.4 kmh NNE 2.7 mph4.3 kmh 29.92 in1013.2 mb 0.00 in0.0 mm 0.00 in0.0 mm 0.00 in0.0 mm
04:34 AM 63.0°F17.2°C 53.4°F11.9°C 71% 3.4 mph NNW5.5 kmh NNW 4.2 mph6.8 kmh 29.92 in1013.2 mb 0.00 in0.0 mm 0.00 in0.0 mm 0.00 in0.0 mm
04:39 AM 62.6°F17.0°C 53.4°F11.9°C 72% 3.8 mph N6.1 kmh N 4.7 mph7.6 kmh 29.93 in1013.5 mb 0.00 in0.0 mm 0.00 in0.0 mm 0.00 in0.0 mm
04:44 AM 62.2°F16.8°C 52.7°F11.5°C 71% 3.4 mph N5.5 kmh N 4.7 mph7.6 kmh 29.93 in1013.5 mb 0.00 in0.0 mm 0.00 in0.0 mm 0.00 in0.0 mm
04:49 AM 62.2°F16.8°C 52.7°F11.5°C 71% 2.9 mph NNE4.7 kmh NNE 4.2 mph6.8 kmh 29.93 in1013.5 mb 0.00 in0.0 mm 0.00 in0.0 mm 0.00 in0.0 mm
04:54 AM 62.4°F16.9°C 52.5°F11.4°C 70% 2.1 mph NNE3.4 kmh NNE 3.2 mph5.1 kmh 29.93 in1013.5 mb 0.00 in0.0 mm 0.00 in0.0 mm 0.00 in0.0 mm
04:59 AM 62.3°F16.8°C 52.4°F11.3°C 70% 1.5 mph N2.4 kmh N 2.1 mph3.4 kmh 29.94 in1013.9 mb 0.00 in0.0 mm 0.00 in0.0 mm 0.00 in0.0 mm
05:04 AM 62.0°F16.7°C 52.1°F11.2°C 70% 0.7 mph NNE1.1 kmh NNE 1.3 mph2.1 kmh 29.94 in1013.9 mb 0.00 in0.0 mm 0.00 in0.0 mm 0.00 in0.0 mm
05:09 AM 61.7°F16.5°C 52.2°F11.2°C 71% 1.2 mph NNE1.9 kmh NNE 1.8 mph2.9 kmh 29.94 in1013.9 mb 0.00 in0.0 mm 0.00 in0.0 mm 0.00 in0.0 mm
05:14 AM 61.7°F16.5°C 52.6°F11.4°C 72% 2.3 mph N3.7 kmh N 3.5 mph5.6 kmh 29.94 in1013.9 mb 0.00 in0.0 mm 0.00 in0.0 mm 0.00 in0.0 mm
05:19 AM 61.6°F16.4°C 52.9°F11.6°C 73% 1.6 mph NNW2.6 kmh NNW 2.7 mph4.3 kmh 29.95 in1014.2 mb 0.00 in0.0 mm 0.00 in0.0 mm 0.00 in0.0 mm
05:24 AM 61.3°F16.3°C 52.2°F11.2°C 72% 2.1 mph N3.4 kmh N 3.5 mph5.6 kmh 29.95 in1014.2 mb 0.00 in0.0 mm 0.00 in0.0 mm 0.00 in0.0 mm
05:29 AM 61.3°F16.3°C 52.6°F11.4°C 73% 1.5 mph N2.4 kmh N 1.8 mph2.9 kmh 29.96 in1014.6 mb 0.00 in0.0 mm 0.00 in0.0 mm 0.00 in0.0 mm
05:34 AM 61.2°F16.2°C 52.5°F11.4°C 73% Calm Calm 1.1 mph1.8 kmh 29.96 in1014.6 mb 0.00 in0.0 mm 0.00 in0.0 mm 0.00 in0.0 mm
05:39 AM 61.2°F16.2°C 52.5°F11.4°C 73% 0.4 mph N0.6 kmh N 1.8 mph2.9 kmh 29.96 in1014.6 mb 0.00 in0.0 mm 0.00 in0.0 mm 0.00 in0.0 mm
05:44 AM 61.2°F16.2°C 52.1°F11.2°C 72% 2.3 mph N3.7 kmh N 3.2 mph5.1 kmh 29.96 in1014.6 mb 0.00 in0.0 mm 0.00 in0.0 mm 0.00 in0.0 mm
05:49 AM 61.2°F16.2°C 52.8°F11.6°C 74% 2.3 mph N3.7 kmh N 3.0 mph4.8 kmh 29.96 in1014.6 mb 0.00 in0.0 mm 0.00 in0.0 mm 0.00 in0.0 mm
05:54 AM 61.0°F16.1°C 52.7°F11.5°C 74% 3.1 mph N5.0 kmh N 4.9 mph7.9 kmh 29.95 in1014.2 mb 0.00 in0.0 mm 0.00 in0.0 mm 0.00 in0.0 mm
05:59 AM 60.8°F16.0°C 53.2°F11.8°C 76% 2.4 mph N3.9 kmh N 3.2 mph5.1 kmh 29.95 in1014.2 mb 0.00 in0.0 mm 0.00 in0.0 mm 0.00 in0.0 mm
06:04 AM 60.9°F16.1°C 52.9°F11.6°C 75% 3.5 mph N5.6 kmh N 5.4 mph8.7 kmh 29.95 in1014.2 mb 0.00 in0.0 mm 0.00 in0.0 mm 0.00 in0.0 mm
06:09 AM 61.0°F16.1°C 52.7°F11.5°C 74% 3.4 mph N5.5 kmh N 5.5 mph8.9 kmh 29.95 in1014.2 mb 0.00 in0.0 mm 0.00 in0.0 mm 0.00 in0.0 mm
06:14 AM 61.2°F16.2°C 52.5°F11.4°C 73% 4.2 mph NNE6.8 kmh NNE 5.5 mph8.9 kmh 29.95 in1014.2 mb 0.00 in0.0 mm 0.00 in0.0 mm 0.00 in0.0 mm
06:19 AM 61.5°F16.4°C 52.8°F11.6°C 73% 2.2 mph NE3.5 kmh NE 4.2 mph6.8 kmh 29.95 in1014.2 mb 0.00 in0.0 mm 0.00 in0.0 mm 0.00 in0.0 mm
06:24 AM 61.7°F16.5°C 52.6°F11.4°C 72% 3.7 mph N6.0 kmh N 4.9 mph7.9 kmh 29.95 in1014.2 mb 0.00 in0.0 mm 0.00 in0.0 mm 0.00 in0.0 mm
06:29 AM 62.0°F16.7°C 52.5°F11.4°C 71% 3.0 mph NE4.8 kmh NE 4.0 mph6.4 kmh 29.96 in1014.6 mb 0.00 in0.0 mm 0.00 in0.0 mm 0.00 in0.0 mm
06:34 AM 62.2°F16.8°C 52.7°F11.5°C 71% 1.0 mph E1.6 kmh E 2.2 mph3.5 kmh 29.96 in1014.6 mb 0.00 in0.0 mm 0.00 in0.0 mm 0.00 in0.0 mm
06:39 AM 62.2°F16.8°C 52.7°F11.5°C 71% 1.4 mph NNE2.3 kmh NNE 2.2 mph3.5 kmh 29.96 in1014.6 mb 0.00 in0.0 mm 0.00 in0.0 mm 0.00 in0.0 mm
06:44 AM 62.2°F16.8°C 52.7°F11.5°C 71% 1.3 mph N2.1 kmh N 2.1 mph3.4 kmh 29.97 in1014.9 mb 0.00 in0.0 mm 0.00 in0.0 mm 0.00 in0.0 mm
06:49 AM 62.1°F16.7°C 53.0°F11.7°C 72% 1.9 mph N3.1 kmh N 2.7 mph4.3 kmh 29.97 in1014.9 mb 0.00 in0.0 mm 0.00 in0.0 mm 0.00 in0.0 mm
06:54 AM 62.2°F16.8°C 53.1°F11.7°C 72% 2.5 mph NNE4.0 kmh NNE 4.4 mph7.1 kmh 29.97 in1014.9 mb 0.00 in0.0 mm 0.00 in0.0 mm 0.00 in0.0 mm
06:59 AM 62.3°F16.8°C 52.8°F11.6°C 71% 2.2 mph NNE3.5 kmh NNE 3.2 mph5.1 kmh 29.97 in1014.9 mb 0.00 in0.0 mm 0.00 in0.0 mm 0.00 in0.0 mm
07:04 AM 62.6°F17.0°C 53.4°F11.9°C 72% 2.8 mph NNE4.5 kmh NNE 4.7 mph7.6 kmh 29.98 in1015.2 mb 0.00 in0.0 mm 0.00 in0.0 mm 0.00 in0.0 mm
07:09 AM 62.7°F17.1°C 53.2°F11.8°C 71% 1.8 mph NNW2.9 kmh NNW 2.7 mph4.3 kmh 29.98 in1015.2 mb 0.00 in0.0 mm 0.00 in0.0 mm 0.00 in0.0 mm
07:14 AM 62.7°F17.1°C 53.5°F11.9°C 72% 3.4 mph NNE5.5 kmh NNE 7.2 mph11.6 kmh 29.98 in1015.2 mb 0.00 in0.0 mm 0.00 in0.0 mm 0.00 in0.0 mm
07:19 AM 62.7°F17.1°C 53.2°F11.8°C 71% 4.1 mph N6.6 kmh N 5.0 mph8.0 kmh 29.98 in1015.2 mb 0.00 in0.0 mm 0.00 in0.0 mm 0.00 in0.0 mm
07:24 AM 62.7°F17.1°C 53.2°F11.8°C 71% 4.2 mph N6.8 kmh N 6.7 mph10.8 kmh 29.98 in1015.2 mb 0.00 in0.0 mm 0.00 in0.0 mm 0.00 in0.0 mm
07:29 AM 62.7°F17.1°C 52.4°F11.3°C 69% 1.7 mph NNE2.7 kmh NNE 5.0 mph8.0 kmh 29.98 in1015.2 mb 0.00 in0.0 mm 0.00 in0.0 mm 0.00 in0.0 mm
07:34 AM 62.9°F17.2°C 53.0°F11.7°C 70% 2.7 mph N4.3 kmh N 4.2 mph6.8 kmh 29.99 in1015.6 mb 0.00 in0.0 mm 0.00 in0.0 mm 0.00 in0.0 mm
07:39 AM 62.8°F17.1°C 52.5°F11.4°C 69% 2.9 mph NNE4.7 kmh NNE 5.5 mph8.9 kmh 29.99 in1015.6 mb 0.00 in0.0 mm 0.00 in0.0 mm 0.00 in0.0 mm
07:44 AM 62.9°F17.2°C 52.6°F11.4°C 69% 2.1 mph NNE3.4 kmh NNE 4.0 mph6.4 kmh 29.99 in1015.6 mb 0.00 in0.0 mm 0.00 in0.0 mm 0.00 in0.0 mm
07:49 AM 62.9°F17.2°C 52.6°F11.4°C 69% 0.7 mph N1.1 kmh N 2.1 mph3.4 kmh 29.99 in1015.6 mb 0.00 in0.0 mm 0.00 in0.0 mm 0.00 in0.0 mm
07:54 AM 62.7°F17.1°C 52.4°F11.3°C 69% 2.0 mph N3.2 kmh N 3.0 mph4.8 kmh 30.00 in1015.9 mb 0.00 in0.0 mm 0.00 in0.0 mm 0.00 in0.0 mm
07:59 AM 62.7°F17.1°C 52.4°F11.3°C 69% 2.7 mph NNE4.3 kmh NNE 3.5 mph5.6 kmh 30.00 in1015.9 mb 0.00 in0.0 mm 0.00 in0.0 mm 0.00 in0.0 mm
08:04 AM 62.7°F17.1°C 52.8°F11.6°C 70% 2.2 mph N3.5 kmh N 3.0 mph4.8 kmh 30.00 in1015.9 mb 0.00 in0.0 mm 0.00 in0.0 mm 0.00 in0.0 mm
08:09 AM 62.7°F17.1°C 53.2°F11.8°C 71% 2.4 mph NNW3.9 kmh NNW 3.5 mph5.6 kmh 30.00 in1015.9 mb 0.00 in0.0 mm 0.00 in0.0 mm 0.00 in0.0 mm
08:14 AM 62.7°F17.1°C 53.2°F11.8°C 71% 3.4 mph NNE5.5 kmh NNE 4.7 mph7.6 kmh 30.00 in1015.9 mb 0.00 in0.0 mm 0.00 in0.0 mm 0.00 in0.0 mm
08:19 AM 62.7°F17.1°C 53.2°F11.8°C 71% 3.0 mph N4.8 kmh N 6.2 mph10.0 kmh 30.00 in1015.9 mb 0.00 in0.0 mm 0.00 in0.0 mm 0.00 in0.0 mm
08:24 AM 62.7°F17.1°C 52.8°F11.6°C 70% 2.2 mph N3.5 kmh N 3.2 mph5.1 kmh 30.00 in1015.9 mb 0.00 in0.0 mm 0.00 in0.0 mm 0.00 in0.0 mm
08:29 AM 62.7°F17.1°C 53.2°F11.8°C 71% 2.3 mph NNE3.7 kmh NNE 3.5 mph5.6 kmh 30.01 in1016.3 mb 0.00 in0.0 mm 0.00 in0.0 mm 0.00 in0.0 mm
08:34 AM 62.7°F17.1°C 53.2°F11.8°C 71% 1.9 mph NNE3.1 kmh NNE 2.7 mph4.3 kmh 30.00 in1015.9 mb 0.00 in0.0 mm 0.00 in0.0 mm 0.00 in0.0 mm
08:39 AM 62.9°F17.2°C 53.3°F11.8°C 71% 3.5 mph NE5.6 kmh NE 5.0 mph8.0 kmh 30.00 in1015.9 mb 0.00 in0.0 mm 0.00 in0.0 mm 0.00 in0.0 mm
08:44 AM 63.1°F17.3°C 53.2°F11.8°C 70% 4.0 mph NNE6.4 kmh NNE 5.4 mph8.7 kmh 30.00 in1015.9 mb 0.00 in0.0 mm 0.00 in0.0 mm 0.00 in0.0 mm
08:49 AM 63.2°F17.3°C 53.2°F11.8°C 70% 3.4 mph NNE5.5 kmh NNE 5.0 mph8.0 kmh 30.00 in1015.9 mb 0.00 in0.0 mm 0.00 in0.0 mm 0.00 in0.0 mm
08:54 AM 63.4°F17.4°C 53.4°F11.9°C 70% 2.7 mph NE4.3 kmh NE 4.4 mph7.1 kmh 30.00 in1015.9 mb 0.00 in0.0 mm 0.00 in0.0 mm 0.00 in0.0 mm
08:59 AM 63.9°F17.7°C 53.9°F12.2°C 70% 2.8 mph NNE4.5 kmh NNE 4.0 mph6.4 kmh 30.00 in1015.9 mb 0.00 in0.0 mm 0.00 in0.0 mm 0.00 in0.0 mm
09:04 AM 64.6°F18.1°C 54.6°F12.6°C 70% 3.1 mph NNE5.0 kmh NNE 4.9 mph7.9 kmh 30.00 in1015.9 mb 0.00 in0.0 mm 0.00 in0.0 mm 0.00 in0.0 mm
09:09 AM 65.2°F18.4°C 55.6°F13.1°C 71% 1.6 mph NNE2.6 kmh NNE 2.2 mph3.5 kmh 30.01 in1016.3 mb 0.00 in0.0 mm 0.00 in0.0 mm 0.00 in0.0 mm
09:14 AM 65.5°F18.6°C 55.1°F12.8°C 69% 1.9 mph N3.1 kmh N 2.6 mph4.2 kmh 30.01 in1016.3 mb 0.00 in0.0 mm 0.00 in0.0 mm 0.00 in0.0 mm
09:19 AM 65.7°F18.7°C 54.8°F12.7°C 68% 1.2 mph NE1.9 kmh NE 3.2 mph5.1 kmh 30.02 in1016.6 mb 0.00 in0.0 mm 0.00 in0.0 mm 0.00 in0.0 mm
09:24 AM 65.7°F18.7°C 54.8°F12.7°C 68% 3.7 mph N6.0 kmh N 5.4 mph8.7 kmh 30.02 in1016.6 mb 0.00 in0.0 mm 0.00 in0.0 mm 0.00 in0.0 mm
09:29 AM 66.1°F18.9°C 54.8°F12.7°C 67% 2.3 mph ENE3.7 kmh ENE 3.5 mph5.6 kmh 30.02 in1016.6 mb 0.00 in0.0 mm 0.00 in0.0 mm 0.00 in0.0 mm
09:34 AM 66.7°F19.3°C 54.6°F12.6°C 65% 1.5 mph NE2.4 kmh NE 3.0 mph4.8 kmh 30.02 in1016.6 mb 0.00 in0.0 mm 0.00 in0.0 mm 0.00 in0.0 mm
09:39 AM 67.0°F19.4°C 54.8°F12.7°C 65% 4.6 mph N7.4 kmh N 6.2 mph10.0 kmh 30.02 in1016.6 mb 0.00 in0.0 mm 0.00 in0.0 mm 0.00 in0.0 mm
09:44 AM 67.7°F19.8°C 55.1°F12.8°C 64% 3.2 mph NNE5.1 kmh NNE 6.0 mph9.7 kmh 30.02 in1016.6 mb 0.00 in0.0 mm 0.00 in0.0 mm 0.00 in0.0 mm
09:49 AM 68.7°F20.4°C 55.1°F12.8°C 62% 4.2 mph NE6.8 kmh NE 7.7 mph12.4 kmh 30.02 in1016.6 mb 0.00 in0.0 mm 0.00 in0.0 mm 0.00 in0.0 mm
09:54 AM 69.1°F20.6°C 55.1°F12.8°C 61% 4.4 mph N7.1 kmh N 11.1 mph17.9 kmh 30.02 in1016.6 mb 0.00 in0.0 mm 0.00 in0.0 mm 0.00 in0.0 mm
09:59 AM 69.2°F20.7°C 54.7°F12.6°C 60% 3.2 mph NNE5.1 kmh NNE 4.9 mph7.9 kmh 30.02 in1016.6 mb 0.00 in0.0 mm 0.00 in0.0 mm 0.00 in0.0 mm
10:04 AM 69.4°F20.8°C 54.4°F12.4°C 59% 2.5 mph NE4.0 kmh NE 4.7 mph7.6 kmh 30.02 in1016.6 mb 0.00 in0.0 mm 0.00 in0.0 mm 0.00 in0.0 mm
10:09 AM 69.7°F20.9°C 54.3°F12.4°C 58% 4.5 mph NE7.2 kmh NE 7.5 mph12.1 kmh 30.02 in1016.6 mb 0.00 in0.0 mm 0.00 in0.0 mm 0.00 in0.0 mm
10:14 AM 69.7°F20.9°C 53.8°F12.1°C 57% 3.2 mph NE5.1 kmh NE 5.5 mph8.9 kmh 30.02 in1016.6 mb 0.00 in0.0 mm 0.00 in0.0 mm 0.00 in0.0 mm
10:19 AM 69.7°F20.9°C 53.3°F11.8°C 56% 2.0 mph N3.2 kmh N 3.0 mph4.8 kmh 30.01 in1016.3 mb 0.00 in0.0 mm 0.00 in0.0 mm 0.00 in0.0 mm
10:24 AM 70.0°F21.1°C 53.6°F12.0°C 56% 1.7 mph NNE2.7 kmh NNE 5.0 mph8.0 kmh 30.01 in1016.3 mb 0.00 in0.0 mm 0.00 in0.0 mm 0.00 in0.0 mm
10:29 AM 70.0°F21.1°C 53.6°F12.0°C 56% 0.9 mph NE1.4 kmh NE 4.4 mph7.1 kmh 30.01 in1016.3 mb 0.00 in0.0 mm 0.00 in0.0 mm 0.00 in0.0 mm
10:34 AM 70.0°F21.1°C 53.1°F11.7°C 55% 3.6 mph NNE5.8 kmh NNE 5.4 mph8.7 kmh 30.01 in1016.3 mb 0.00 in0.0 mm 0.00 in0.0 mm 0.00 in0.0 mm
10:39 AM 70.7°F21.5°C 53.7°F12.1°C 55% 5.3 mph NE8.5 kmh NE 8.5 mph13.7 kmh 30.01 in1016.3 mb 0.00 in0.0 mm 0.00 in0.0 mm 0.00 in0.0 mm
10:44 AM 71.1°F21.7°C 53.1°F11.7°C 53% 3.5 mph N5.6 kmh N 6.7 mph10.8 kmh 30.01 in1016.3 mb 0.00 in0.0 mm 0.00 in0.0 mm 0.00 in0.0 mm
10:49 AM 71.4°F21.9°C 52.8°F11.6°C 52% 3.2 mph NE5.1 kmh NE 6.0 mph9.7 kmh 30.01 in1016.3 mb 0.00 in0.0 mm 0.00 in0.0 mm 0.00 in0.0 mm
10:54 AM 71.6°F22.0°C 52.5°F11.4°C 51% 5.8 mph NNE9.3 kmh NNE 8.1 mph13.0 kmh 30.01 in1016.3 mb 0.00 in0.0 mm 0.00 in0.0 mm 0.00 in0.0 mm
10:59 AM 71.7°F22.1°C 52.6°F11.4°C 51% 3.0 mph NNE4.8 kmh NNE 4.7 mph7.6 kmh 30.01 in1016.3 mb 0.00 in0.0 mm 0.00 in0.0 mm 0.00 in0.0 mm
11:04 AM 72.1°F22.3°C 52.4°F11.3°C 50% 2.5 mph NNE4.0 kmh NNE 4.2 mph6.8 kmh 30.01 in1016.3 mb 0.00 in0.0 mm 0.00 in0.0 mm 0.00 in0.0 mm
11:09 AM 72.2°F22.3°C 52.5°F11.4°C 50% 5.1 mph NNE8.2 kmh NNE 9.3 mph15.0 kmh 30.01 in1016.3 mb 0.00 in0.0 mm 0.00 in0.0 mm 0.00 in0.0 mm
11:14 AM 71.9°F22.2°C 51.1°F10.6°C 48% 5.1 mph N8.2 kmh N 8.4 mph13.5 kmh 30.01 in1016.3 mb 0.00 in0.0 mm 0.00 in0.0 mm 0.00 in0.0 mm
11:19 AM 71.9°F22.2°C 51.7°F10.9°C 49% 3.6 mph NE5.8 kmh NE 6.2 mph10.0 kmh 30.00 in1015.9 mb 0.00 in0.0 mm 0.00 in0.0 mm 0.00 in0.0 mm
11:24 AM 72.0°F22.2°C 51.8°F11.0°C 49% 5.9 mph NNE9.5 kmh NNE 11.0 mph17.7 kmh 30.01 in1016.3 mb 0.00 in0.0 mm 0.00 in0.0 mm 0.00 in0.0 mm
11:29 AM 72.0°F22.2°C 51.2°F10.7°C 48% 5.6 mph N9.0 kmh N 9.3 mph15.0 kmh 30.01 in1016.3 mb 0.00 in0.0 mm 0.00 in0.0 mm 0.00 in0.0 mm
11:34 AM 72.0°F22.2°C 50.7°F10.4°C 47% 5.6 mph NE9.0 kmh NE 9.3 mph15.0 kmh 30.01 in1016.3 mb 0.00 in0.0 mm 0.00 in0.0 mm 0.00 in0.0 mm
11:39 AM 72.2°F22.3°C 50.8°F10.4°C 47% 2.2 mph NNE3.5 kmh NNE 5.0 mph8.0 kmh 30.01 in1016.3 mb 0.00 in0.0 mm 0.00 in0.0 mm 0.00 in0.0 mm
11:44 AM 72.7°F22.6°C 52.4°F11.3°C 49% 2.8 mph E4.5 kmh E 4.0 mph6.4 kmh 30.01 in1016.3 mb 0.00 in0.0 mm 0.00 in0.0 mm 0.00 in0.0 mm
11:49 AM 72.9°F22.7°C 52.6°F11.4°C 49% 2.3 mph NNE3.7 kmh NNE 3.7 mph6.0 kmh 30.01 in1016.3 mb 0.00 in0.0 mm 0.00 in0.0 mm 0.00 in0.0 mm
11:54 AM 73.1°F22.8°C 52.8°F11.6°C 49% 5.8 mph NNE9.3 kmh NNE 9.5 mph15.3 kmh 30.01 in1016.3 mb 0.00 in0.0 mm 0.00 in0.0 mm 0.00 in0.0 mm
11:59 AM 73.2°F22.9°C 52.3°F11.3°C 48% 2.7 mph N4.3 kmh N 5.4 mph8.7 kmh 30.00 in1015.9 mb 0.00 in0.0 mm 0.00 in0.0 mm 0.00 in0.0 mm
12:04 PM 73.4°F23.0°C 52.5°F11.4°C 48% 2.7 mph ENE4.3 kmh ENE 4.7 mph7.6 kmh 30.00 in1015.9 mb 0.00 in0.0 mm 0.00 in0.0 mm 0.00 in0.0 mm
12:09 PM 73.2°F22.9°C 51.7°F10.9°C 47% 1.8 mph NNE2.9 kmh NNE 5.4 mph8.7 kmh 30.00 in1015.9 mb 0.00 in0.0 mm 0.00 in0.0 mm 0.00 in0.0 mm
12:14 PM 72.8°F22.7°C 52.0°F11.1°C 48% 1.8 mph NNE2.9 kmh NNE 4.7 mph7.6 kmh 30.00 in1015.9 mb 0.00 in0.0 mm 0.00 in0.0 mm 0.00 in0.0 mm
12:19 PM 72.7°F22.6°C 51.9°F11.1°C 48% 5.0 mph NE8.0 kmh NE 7.5 mph12.1 kmh 30.00 in1015.9 mb 0.00 in0.0 mm 0.00 in0.0 mm 0.00 in0.0 mm
12:24 PM 72.8°F22.7°C 51.4°F10.8°C 47% 5.0 mph ENE8.0 kmh ENE 8.1 mph13.0 kmh 30.00 in1015.9 mb 0.00 in0.0 mm 0.00 in0.0 mm 0.00 in0.0 mm
12:29 PM 73.3°F22.9°C 50.7°F10.4°C 45% 4.0 mph NE6.4 kmh NE 6.2 mph10.0 kmh 30.00 in1015.9 mb 0.00 in0.0 mm 0.00 in0.0 mm 0.00 in0.0 mm
12:34 PM 73.9°F23.3°C 51.8°F11.0°C 46% 3.3 mph N5.3 kmh N 7.2 mph11.6 kmh 30.00 in1015.9 mb 0.00 in0.0 mm 0.00 in0.0 mm 0.00 in0.0 mm
12:39 PM 74.3°F23.5°C 51.6°F10.9°C 45% 4.7 mph N7.6 kmh N 8.1 mph13.0 kmh 30.00 in1015.9 mb 0.00 in0.0 mm 0.00 in0.0 mm 0.00 in0.0 mm
12:44 PM 74.4°F23.6°C 51.7°F10.9°C 45% 5.3 mph NNE8.5 kmh NNE 7.7 mph12.4 kmh 30.00 in1015.9 mb 0.00 in0.0 mm 0.00 in0.0 mm 0.00 in0.0 mm
12:49 PM 74.4°F23.6°C 51.7°F10.9°C 45% 1.5 mph N2.4 kmh N 3.2 mph5.1 kmh 30.00 in1015.9 mb 0.00 in0.0 mm 0.00 in0.0 mm 0.00 in0.0 mm
12:54 PM 74.7°F23.7°C 52.5°F11.4°C 46% 4.5 mph NNE7.2 kmh NNE 6.5 mph10.5 kmh 29.99 in1015.6 mb 0.00 in0.0 mm 0.00 in0.0 mm 0.00 in0.0 mm
12:59 PM 75.2°F24.0°C 53.6°F12.0°C 47% 2.3 mph ENE3.7 kmh ENE 5.0 mph8.0 kmh 29.99 in1015.6 mb 0.00 in0.0 mm 0.00 in0.0 mm 0.00 in0.0 mm
01:04 PM 75.4°F24.1°C 54.9°F12.7°C 49% 3.9 mph N6.3 kmh N 6.0 mph9.7 kmh 29.99 in1015.6 mb 0.00 in0.0 mm 0.00 in0.0 mm 0.00 in0.0 mm
01:09 PM 75.7°F24.3°C 54.0°F12.2°C 47% 2.4 mph NE3.9 kmh NE 3.2 mph5.1 kmh 29.99 in1015.6 mb 0.00 in0.0 mm 0.00 in0.0 mm 0.00 in0.0 mm
01:14 PM 76.0°F24.4°C 53.7°F12.1°C 46% 0.1 mph NE0.2 kmh NE 1.6 mph2.6 kmh 29.99 in1015.6 mb 0.00 in0.0 mm 0.00 in0.0 mm 0.00 in0.0 mm
01:19 PM 76.4°F24.7°C 55.2°F12.9°C 48% 3.2 mph E5.1 kmh E 6.0 mph9.7 kmh 29.99 in1015.6 mb 0.00 in0.0 mm 0.00 in0.0 mm 0.00 in0.0 mm
01:24 PM 76.1°F24.5°C 55.0°F12.8°C 48% 3.6 mph E5.8 kmh E 5.0 mph8.0 kmh 29.99 in1015.6 mb 0.00 in0.0 mm 0.00 in0.0 mm 0.00 in0.0 mm
01:29 PM 75.4°F24.1°C 53.2°F11.8°C 46% 2.9 mph N4.7 kmh N 4.4 mph7.1 kmh 29.99 in1015.6 mb 0.00 in0.0 mm 0.00 in0.0 mm 0.00 in0.0 mm
01:34 PM 75.2°F24.0°C 53.0°F11.7°C 46% 4.3 mph NE6.9 kmh NE 5.4 mph8.7 kmh 29.98 in1015.2 mb 0.00 in0.0 mm 0.00 in0.0 mm 0.00 in0.0 mm
01:39 PM 75.2°F24.0°C 54.1°F12.3°C 48% 2.4 mph NE3.9 kmh NE 4.7 mph7.6 kmh 29.98 in1015.2 mb 0.00 in0.0 mm 0.00 in0.0 mm 0.00 in0.0 mm
01:44 PM 75.2°F24.0°C 55.8°F13.2°C 51% 1.9 mph NE3.1 kmh NE 3.2 mph5.1 kmh 29.99 in1015.6 mb 0.00 in0.0 mm 0.00 in0.0 mm 0.00 in0.0 mm
01:49 PM 75.5°F24.2°C 56.1°F13.4°C 51% 2.8 mph N4.5 kmh N 3.7 mph6.0 kmh 29.98 in1015.2 mb 0.00 in0.0 mm 0.00 in0.0 mm 0.00 in0.0 mm
01:54 PM 75.5°F24.2°C 55.5°F13.1°C 50% 1.6 mph ENE2.6 kmh ENE 3.2 mph5.1 kmh 29.98 in1015.2 mb 0.00 in0.0 mm 0.00 in0.0 mm 0.00 in0.0 mm
01:59 PM 75.7°F24.3°C 56.3°F13.5°C 51% 2.0 mph NNE3.2 kmh NNE 4.0 mph6.4 kmh 29.98 in1015.2 mb 0.00 in0.0 mm 0.00 in0.0 mm 0.00 in0.0 mm
02:04 PM 76.4°F24.7°C 56.9°F13.8°C 51% 3.3 mph NNW5.3 kmh NNW 4.4 mph7.1 kmh 29.98 in1015.2 mb 0.00 in0.0 mm 0.00 in0.0 mm 0.00 in0.0 mm
02:09 PM 77.3°F25.2°C 57.7°F14.3°C 51% 1.1 mph ENE1.8 kmh ENE 4.7 mph7.6 kmh 29.98 in1015.2 mb 0.00 in0.0 mm 0.00 in0.0 mm 0.00 in0.0 mm
02:14 PM 77.8°F25.4°C 58.2°F14.6°C 51% 4.4 mph NNE7.1 kmh NNE 6.2 mph10.0 kmh 29.98 in1015.2 mb 0.00 in0.0 mm 0.00 in0.0 mm 0.00 in0.0 mm
02:19 PM 77.8°F25.4°C 57.1°F13.9°C 49% 3.8 mph NNE6.1 kmh NNE 5.5 mph8.9 kmh 29.98 in1015.2 mb 0.00 in0.0 mm 0.00 in0.0 mm 0.00 in0.0 mm
02:24 PM 77.4°F25.2°C 55.0°F12.8°C 46% 2.1 mph NE3.4 kmh NE 3.0 mph4.8 kmh 29.98 in1015.2 mb 0.00 in0.0 mm 0.00 in0.0 mm 0.00 in0.0 mm
02:29 PM 77.0°F25.0°C 55.2°F12.9°C 47% 2.3 mph N3.7 kmh N 3.5 mph5.6 kmh 29.98 in1015.2 mb 0.00 in0.0 mm 0.00 in0.0 mm 0.00 in0.0 mm
02:34 PM 77.5°F25.3°C 58.5°F14.7°C 52% 2.7 mph N4.3 kmh N 4.4 mph7.1 kmh 29.97 in1014.9 mb 0.00 in0.0 mm 0.00 in0.0 mm 0.00 in0.0 mm
02:39 PM 78.0°F25.6°C 58.9°F14.9°C 52% 2.6 mph SE4.2 kmh SE 4.0 mph6.4 kmh 29.98 in1015.2 mb 0.00 in0.0 mm 0.00 in0.0 mm 0.00 in0.0 mm
02:44 PM 77.7°F25.4°C 57.0°F13.9°C 49% 1.6 mph ENE2.6 kmh ENE 4.7 mph7.6 kmh 29.97 in1014.9 mb 0.00 in0.0 mm 0.00 in0.0 mm 0.00 in0.0 mm
02:49 PM 77.7°F25.4°C 57.6°F14.2°C 50% 1.5 mph NNE2.4 kmh NNE 4.9 mph7.9 kmh 29.97 in1014.9 mb 0.00 in0.0 mm 0.00 in0.0 mm 0.00 in0.0 mm
02:54 PM 78.0°F25.6°C 58.4°F14.7°C 51% 2.9 mph N4.7 kmh N 4.7 mph7.6 kmh 29.97 in1014.9 mb 0.00 in0.0 mm 0.00 in0.0 mm 0.00 in0.0 mm
02:59 PM 78.2°F25.7°C 56.3°F13.5°C 47% 0.9 mph NNE1.4 kmh NNE 3.5 mph5.6 kmh 29.97 in1014.9 mb 0.00 in0.0 mm 0.00 in0.0 mm 0.00 in0.0 mm
03:04 PM 78.4°F25.8°C 55.9°F13.3°C 46% 0.5 mph NE0.8 kmh NE 1.8 mph2.9 kmh 29.97 in1014.9 mb 0.00 in0.0 mm 0.00 in0.0 mm 0.00 in0.0 mm
03:09 PM 78.3°F25.7°C 55.8°F13.2°C 46% 4.6 mph N7.4 kmh N 6.2 mph10.0 kmh 29.96 in1014.6 mb 0.00 in0.0 mm 0.00 in0.0 mm 0.00 in0.0 mm
03:14 PM 78.2°F25.7°C 56.3°F13.5°C 47% 3.4 mph ENE5.5 kmh ENE 5.0 mph8.0 kmh 29.96 in1014.6 mb 0.00 in0.0 mm 0.00 in0.0 mm 0.00 in0.0 mm
03:19 PM 77.8°F25.4°C 55.3°F12.9°C 46% 2.3 mph N3.7 kmh N 6.5 mph10.5 kmh 29.96 in1014.6 mb 0.00 in0.0 mm 0.00 in0.0 mm 0.00 in0.0 mm
03:24 PM 78.1°F25.6°C 55.0°F12.8°C 45% 6.0 mph NNW9.7 kmh NNW 7.5 mph12.1 kmh 29.96 in1014.6 mb 0.00 in0.0 mm 0.00 in0.0 mm 0.00 in0.0 mm
03:29 PM 78.6°F25.9°C 54.2°F12.3°C 43% 2.1 mph NNE3.4 kmh NNE 3.7 mph6.0 kmh 29.97 in1014.9 mb 0.00 in0.0 mm 0.00 in0.0 mm 0.00 in0.0 mm
03:34 PM 78.1°F25.6°C 53.8°F12.1°C 43% 4.6 mph NE7.4 kmh NE 8.5 mph13.7 kmh 29.97 in1014.9 mb 0.00 in0.0 mm 0.00 in0.0 mm 0.00 in0.0 mm
03:39 PM 77.5°F25.3°C 52.6°F11.4°C 42% 5.2 mph NNW8.4 kmh NNW 7.2 mph11.6 kmh 29.97 in1014.9 mb 0.00 in0.0 mm 0.00 in0.0 mm 0.00 in0.0 mm
03:44 PM 77.3°F25.2°C 53.0°F11.7°C 43% 3.6 mph N5.8 kmh N 5.7 mph9.2 kmh 29.97 in1014.9 mb 0.00 in0.0 mm 0.00 in0.0 mm 0.00 in0.0 mm
03:49 PM 77.6°F25.3°C 53.9°F12.2°C 44% 3.2 mph NE5.1 kmh NE 5.7 mph9.2 kmh 29.97 in1014.9 mb 0.00 in0.0 mm 0.00 in0.0 mm 0.00 in0.0 mm
03:54 PM 77.4°F25.2°C 53.8°F12.1°C 44% 4.4 mph NNW7.1 kmh NNW 6.5 mph10.5 kmh 29.97 in1014.9 mb 0.00 in0.0 mm 0.00 in0.0 mm 0.00 in0.0 mm
03:59 PM 77.0°F25.0°C 52.8°F11.6°C 43% 4.7 mph NNW7.6 kmh NNW 7.0 mph11.3 kmh 29.97 in1014.9 mb 0.00 in0.0 mm 0.00 in0.0 mm 0.00 in0.0 mm
04:04 PM 77.2°F25.1°C 53.0°F11.7°C 43% 5.2 mph N8.4 kmh N 7.5 mph12.1 kmh 29.97 in1014.9 mb 0.00 in0.0 mm 0.00 in0.0 mm 0.00 in0.0 mm
04:09 PM 77.2°F25.1°C 53.6°F12.0°C 44% 4.1 mph NNE6.6 kmh NNE 5.5 mph8.9 kmh 29.97 in1014.9 mb 0.00 in0.0 mm 0.00 in0.0 mm 0.00 in0.0 mm
04:14 PM 77.0°F25.0°C 53.4°F11.9°C 44% 2.3 mph NE3.7 kmh NE 3.2 mph5.1 kmh 29.97 in1014.9 mb 0.00 in0.0 mm 0.00 in0.0 mm 0.00 in0.0 mm
04:19 PM 77.0°F25.0°C 53.4°F11.9°C 44% 4.7 mph NNE7.6 kmh NNE 6.7 mph10.8 kmh 29.97 in1014.9 mb 0.00 in0.0 mm 0.00 in0.0 mm 0.00 in0.0 mm
04:24 PM 77.0°F25.0°C 53.4°F11.9°C 44% 3.0 mph N4.8 kmh N 4.0 mph6.4 kmh 29.97 in1014.9 mb 0.00 in0.0 mm 0.00 in0.0 mm 0.00 in0.0 mm
04:29 PM 77.0°F25.0°C 53.4°F11.9°C 44% 3.6 mph NNE5.8 kmh NNE 5.0 mph8.0 kmh 29.98 in1015.2 mb 0.00 in0.0 mm 0.00 in0.0 mm 0.00 in0.0 mm
04:34 PM 76.9°F24.9°C 53.3°F11.8°C 44% 2.2 mph NNE3.5 kmh NNE 3.5 mph5.6 kmh 29.98 in1015.2 mb 0.00 in0.0 mm 0.00 in0.0 mm 0.00 in0.0 mm
04:39 PM 76.7°F24.8°C 53.1°F11.7°C 44% 0.6 mph NNE1.0 kmh NNE 2.2 mph3.5 kmh 29.98 in1015.2 mb 0.00 in0.0 mm 0.00 in0.0 mm 0.00 in0.0 mm
04:44 PM 76.7°F24.8°C 53.1°F11.7°C 44% 5.4 mph N8.7 kmh N 7.5 mph12.1 kmh 29.98 in1015.2 mb 0.00 in0.0 mm 0.00 in0.0 mm 0.00 in0.0 mm
04:49 PM 77.1°F25.1°C 53.5°F11.9°C 44% 3.5 mph NNE5.6 kmh NNE 4.4 mph7.1 kmh 29.98 in1015.2 mb 0.00 in0.0 mm 0.00 in0.0 mm 0.00 in0.0 mm
04:54 PM 77.2°F25.1°C 53.6°F12.0°C 44% 4.3 mph N6.9 kmh N 6.7 mph10.8 kmh 29.98 in1015.2 mb 0.00 in0.0 mm 0.00 in0.0 mm 0.00 in0.0 mm
04:59 PM 77.2°F25.1°C 53.6°F12.0°C 44% 2.9 mph NNW4.7 kmh NNW 5.7 mph9.2 kmh 29.98 in1015.2 mb 0.00 in0.0 mm 0.00 in0.0 mm 0.00 in0.0 mm
05:04 PM 77.2°F25.1°C 53.6°F12.0°C 44% 3.8 mph NW6.1 kmh NW 5.7 mph9.2 kmh 29.98 in1015.2 mb 0.00 in0.0 mm 0.00 in0.0 mm 0.00 in0.0 mm
05:09 PM 77.0°F25.0°C 54.0°F12.2°C 45% 5.4 mph NNW8.7 kmh NNW 7.2 mph11.6 kmh 29.98 in1015.2 mb 0.00 in0.0 mm 0.00 in0.0 mm 0.00 in0.0 mm
05:14 PM 76.8°F24.9°C 53.8°F12.1°C 45% 6.4 mph NNW10.3 kmh NNW 10.0 mph16.1 kmh 29.98 in1015.2 mb 0.00 in0.0 mm 0.00 in0.0 mm 0.00 in0.0 mm
05:19 PM 76.7°F24.8°C 53.1°F11.7°C 44% 5.8 mph NW9.3 kmh NW 8.9 mph14.3 kmh 29.98 in1015.2 mb 0.00 in0.0 mm 0.00 in0.0 mm 0.00 in0.0 mm
05:24 PM 76.7°F24.8°C 53.7°F12.1°C 45% 3.1 mph N5.0 kmh N 4.9 mph7.9 kmh 29.98 in1015.2 mb 0.00 in0.0 mm 0.00 in0.0 mm 0.00 in0.0 mm
05:29 PM 76.7°F24.8°C 53.7°F12.1°C 45% 6.0 mph NNW9.7 kmh NNW 8.9 mph14.3 kmh 29.98 in1015.2 mb 0.00 in0.0 mm 0.00 in0.0 mm 0.00 in0.0 mm
05:34 PM 76.7°F24.8°C 53.1°F11.7°C 44% 4.6 mph N7.4 kmh N 7.5 mph12.1 kmh 29.98 in1015.2 mb 0.00 in0.0 mm 0.00 in0.0 mm 0.00 in0.0 mm
05:39 PM 76.6°F24.8°C 52.4°F11.3°C 43% 5.9 mph NNW9.5 kmh NNW 9.0 mph14.5 kmh 29.98 in1015.2 mb 0.00 in0.0 mm 0.00 in0.0 mm 0.00 in0.0 mm
05:44 PM 76.5°F24.7°C 52.9°F11.6°C 44% 1.4 mph NNE2.3 kmh NNE 2.7 mph4.3 kmh 29.98 in1015.2 mb 0.00 in0.0 mm 0.00 in0.0 mm 0.00 in0.0 mm
05:49 PM 76.3°F24.6°C 53.4°F11.9°C 45% 4.8 mph N7.7 kmh N 6.7 mph10.8 kmh 29.98 in1015.2 mb 0.00 in0.0 mm 0.00 in0.0 mm 0.00 in0.0 mm
05:54 PM 76.2°F24.6°C 52.7°F11.5°C 44% 2.7 mph N4.3 kmh N 4.9 mph7.9 kmh 29.98 in1015.2 mb 0.00 in0.0 mm 0.00 in0.0 mm 0.00 in0.0 mm
05:59 PM 76.2°F24.6°C 52.7°F11.5°C 44% 3.7 mph N6.0 kmh N 6.5 mph10.5 kmh 29.98 in1015.2 mb 0.00 in0.0 mm 0.00 in0.0 mm 0.00 in0.0 mm
06:04 PM 76.0°F24.4°C 53.1°F11.7°C 45% 3.0 mph N4.8 kmh N 6.2 mph10.0 kmh 29.98 in1015.2 mb 0.00 in0.0 mm 0.00 in0.0 mm 0.00 in0.0 mm
06:09 PM 76.0°F24.4°C 52.5°F11.4°C 44% 4.1 mph NNE6.6 kmh NNE 7.9 mph12.7 kmh 29.98 in1015.2 mb 0.00 in0.0 mm 0.00 in0.0 mm 0.00 in0.0 mm
06:14 PM 76.0°F24.4°C 51.9°F11.1°C 43% 4.9 mph NNW7.9 kmh NNW 7.5 mph12.1 kmh 29.98 in1015.2 mb 0.00 in0.0 mm 0.00 in0.0 mm 0.00 in0.0 mm
06:19 PM 75.9°F24.4°C 51.8°F11.0°C 43% 1.4 mph NE2.3 kmh NE 2.7 mph4.3 kmh 29.98 in1015.2 mb 0.00 in0.0 mm 0.00 in0.0 mm 0.00 in0.0 mm
06:24 PM 75.7°F24.3°C 52.2°F11.2°C 44% 1.6 mph NNE2.6 kmh NNE 3.5 mph5.6 kmh 29.98 in1015.2 mb 0.00 in0.0 mm 0.00 in0.0 mm 0.00 in0.0 mm
06:29 PM 75.7°F24.3°C 52.2°F11.2°C 44% 0.1 mph NW0.2 kmh NW 1.6 mph2.6 kmh 29.98 in1015.2 mb 0.00 in0.0 mm 0.00 in0.0 mm 0.00 in0.0 mm
06:34 PM 75.6°F24.2°C 52.7°F11.5°C 45% 2.4 mph SSE3.9 kmh SSE 3.7 mph6.0 kmh 29.98 in1015.2 mb 0.00 in0.0 mm 0.00 in0.0 mm 0.00 in0.0 mm
06:39 PM 74.8°F23.8°C 53.2°F11.8°C 47% 2.2 mph S3.5 kmh S 3.5 mph5.6 kmh 29.98 in1015.2 mb 0.00 in0.0 mm 0.00 in0.0 mm 0.00 in0.0 mm
06:44 PM 73.8°F23.2°C 53.4°F11.9°C 49% 3.8 mph SW6.1 kmh SW 4.9 mph7.9 kmh 29.99 in1015.6 mb 0.00 in0.0 mm 0.00 in0.0 mm 0.00 in0.0 mm
06:49 PM 72.9°F22.7°C 52.6°F11.4°C 49% 4.9 mph WSW7.9 kmh WSW 6.5 mph10.5 kmh 29.99 in1015.6 mb 0.00 in0.0 mm 0.00 in0.0 mm 0.00 in0.0 mm
06:54 PM 72.3°F22.4°C 53.1°F11.7°C 51% 4.5 mph SSW7.2 kmh SSW 5.5 mph8.9 kmh 29.99 in1015.6 mb 0.00 in0.0 mm 0.00 in0.0 mm 0.00 in0.0 mm
06:59 PM 72.0°F22.2°C 52.9°F11.6°C 51% 3.4 mph SW5.5 kmh SW 5.0 mph8.0 kmh 29.99 in1015.6 mb 0.00 in0.0 mm 0.00 in0.0 mm 0.00 in0.0 mm
07:04 PM 72.0°F22.2°C 52.9°F11.6°C 51% 1.0 mph SSW1.6 kmh SSW 2.2 mph3.5 kmh 29.99 in1015.6 mb 0.00 in0.0 mm 0.00 in0.0 mm 0.00 in0.0 mm
07:09 PM 72.1°F22.3°C 53.0°F11.7°C 51% 2.9 mph SSW4.7 kmh SSW 3.5 mph5.6 kmh 29.99 in1015.6 mb 0.00 in0.0 mm 0.00 in0.0 mm 0.00 in0.0 mm
07:14 PM 72.2°F22.3°C 53.1°F11.7°C 51% 2.7 mph SSW4.3 kmh SSW 3.7 mph6.0 kmh 29.99 in1015.6 mb 0.00 in0.0 mm 0.00 in0.0 mm 0.00 in0.0 mm
07:19 PM 72.2°F22.3°C 53.1°F11.7°C 51% 1.7 mph WSW2.7 kmh WSW 3.0 mph4.8 kmh 29.99 in1015.6 mb 0.00 in0.0 mm 0.00 in0.0 mm 0.00 in0.0 mm
07:24 PM 71.9°F22.2°C 53.3°F11.8°C 52% 2.5 mph SSW4.0 kmh SSW 3.0 mph4.8 kmh 30.00 in1015.9 mb 0.00 in0.0 mm 0.00 in0.0 mm 0.00 in0.0 mm
07:29 PM 71.7°F22.1°C 53.6°F12.0°C 53% 2.0 mph SSE3.2 kmh SSE 2.6 mph4.2 kmh 30.00 in1015.9 mb 0.00 in0.0 mm 0.00 in0.0 mm 0.00 in0.0 mm
07:34 PM 71.7°F22.1°C 54.2°F12.3°C 54% 2.0 mph SSW3.2 kmh SSW 2.7 mph4.3 kmh 30.00 in1015.9 mb 0.00 in0.0 mm 0.00 in0.0 mm 0.00 in0.0 mm
07:39 PM 71.5°F21.9°C 54.0°F12.2°C 54% 1.9 mph SSW3.1 kmh SSW 2.1 mph3.4 kmh 30.00 in1015.9 mb 0.00 in0.0 mm 0.00 in0.0 mm 0.00 in0.0 mm
07:44 PM 71.2°F21.8°C 54.2°F12.3°C 55% Calm Calm -- 30.00 in1015.9 mb 0.00 in0.0 mm 0.00 in0.0 mm 0.00 in0.0 mm
07:49 PM 70.8°F21.6°C 53.8°F12.1°C 55% Calm Calm -- 30.00 in1015.9 mb 0.00 in0.0 mm 0.00 in0.0 mm 0.00 in0.0 mm
07:54 PM 70.5°F21.4°C 54.0°F12.2°C 56% Calm Calm -- 30.00 in1015.9 mb 0.00 in0.0 mm 0.00 in0.0 mm 0.00 in0.0 mm
07:59 PM 70.1°F21.2°C 54.6°F12.6°C 58% Calm Calm -- 30.01 in1016.3 mb 0.00 in0.0 mm 0.00 in0.0 mm 0.00 in0.0 mm
08:04 PM 69.3°F20.7°C 54.3°F12.4°C 59% Calm Calm -- 30.01 in1016.3 mb 0.00 in0.0 mm 0.00 in0.0 mm 0.00 in0.0 mm
08:09 PM 68.5°F20.3°C 54.1°F12.3°C 60% Calm Calm -- 30.01 in1016.3 mb 0.00 in0.0 mm 0.00 in0.0 mm 0.00 in0.0 mm
08:14 PM 67.7°F19.8°C 54.2°F12.3°C 62% Calm Calm -- 30.01 in1016.3 mb 0.00 in0.0 mm 0.00 in0.0 mm 0.00 in0.0 mm
08:19 PM 66.9°F19.4°C 54.7°F12.6°C 65% Calm Calm -- 30.01 in1016.3 mb 0.00 in0.0 mm 0.00 in0.0 mm 0.00 in0.0 mm
08:24 PM 66.2°F19.0°C 54.9°F12.7°C 67% Calm Calm -- 30.01 in1016.3 mb 0.00 in0.0 mm 0.00 in0.0 mm 0.00 in0.0 mm
08:29 PM 65.3°F18.5°C 54.9°F12.7°C 69% Calm Calm -- 30.01 in1016.3 mb 0.00 in0.0 mm 0.00 in0.0 mm 0.00 in0.0 mm
08:34 PM 64.4°F18.0°C 54.8°F12.7°C 71% Calm Calm -- 30.01 in1016.3 mb 0.00 in0.0 mm 0.00 in0.0 mm 0.00 in0.0 mm
08:39 PM 63.7°F17.6°C 54.5°F12.5°C 72% Calm Calm -- 30.01 in1016.3 mb 0.00 in0.0 mm 0.00 in0.0 mm 0.00 in0.0 mm
08:44 PM 63.2°F17.3°C 54.4°F12.4°C 73% Calm Calm -- 30.02 in1016.6 mb 0.00 in0.0 mm 0.00 in0.0 mm 0.00 in0.0 mm
08:49 PM 62.8°F17.1°C 54.4°F12.4°C 74% Calm Calm -- 30.02 in1016.6 mb 0.00 in0.0 mm 0.00 in0.0 mm 0.00 in0.0 mm
08:54 PM 62.3°F16.8°C 54.6°F12.6°C 76% Calm Calm -- 30.02 in1016.6 mb 0.00 in0.0 mm 0.00 in0.0 mm 0.00 in0.0 mm
08:59 PM 61.7°F16.5°C 54.8°F12.7°C 78% 1.1 mph NNW1.8 kmh NNW 1.6 mph2.6 kmh 30.02 in1016.6 mb 0.00 in0.0 mm 0.00 in0.0 mm 0.00 in0.0 mm
09:04 PM 61.2°F16.2°C 54.6°F12.6°C 79% 0.4 mph NNE0.6 kmh NNE 1.3 mph2.1 kmh 30.02 in1016.6 mb 0.00 in0.0 mm 0.00 in0.0 mm 0.00 in0.0 mm
09:09 PM 60.7°F15.9°C 54.5°F12.5°C 80% Calm Calm -- 30.03 in1016.9 mb 0.00 in0.0 mm 0.00 in0.0 mm 0.00 in0.0 mm
09:14 PM 60.5°F15.8°C 54.6°F12.6°C 81% Calm Calm -- 30.03 in1016.9 mb 0.00 in0.0 mm 0.00 in0.0 mm 0.00 in0.0 mm
09:19 PM 60.2°F15.7°C 54.3°F12.4°C 81% Calm Calm -- 30.03 in1016.9 mb 0.00 in0.0 mm 0.00 in0.0 mm 0.00 in0.0 mm
09:24 PM 60.1°F15.6°C 54.2°F12.3°C 81% Calm Calm -- 30.03 in1016.9 mb 0.00 in0.0 mm 0.00 in0.0 mm 0.00 in0.0 mm
09:29 PM 60.0°F15.6°C 54.2°F12.3°C 81% Calm Calm -- 30.03 in1016.9 mb 0.00 in0.0 mm 0.00 in0.0 mm 0.00 in0.0 mm
09:34 PM 59.7°F15.4°C 54.2°F12.3°C 82% Calm Calm -- 30.03 in1016.9 mb 0.00 in0.0 mm 0.00 in0.0 mm 0.00 in0.0 mm
09:39 PM 59.5°F15.3°C 54.7°F12.6°C 84% Calm Calm -- 30.03 in1016.9 mb 0.00 in0.0 mm 0.00 in0.0 mm 0.00 in0.0 mm
09:44 PM 59.2°F15.1°C 54.4°F12.4°C 84% Calm Calm -- 30.03 in1016.9 mb 0.00 in0.0 mm 0.00 in0.0 mm 0.00 in0.0 mm
09:49 PM 58.9°F14.9°C 54.4°F12.4°C 85% Calm Calm -- 30.03 in1016.9 mb 0.00 in0.0 mm 0.00 in0.0 mm 0.00 in0.0 mm
09:54 PM 58.6°F14.8°C 54.4°F12.4°C 86% 0.6 mph NNE1.0 kmh NNE 1.3 mph2.1 kmh 30.03 in1016.9 mb 0.00 in0.0 mm 0.00 in0.0 mm 0.00 in0.0 mm
09:59 PM 58.2°F14.6°C 54.0°F12.2°C 86% 1.5 mph NNE2.4 kmh NNE 1.8 mph2.9 kmh 30.03 in1016.9 mb 0.00 in0.0 mm 0.00 in0.0 mm 0.00 in0.0 mm
10:04 PM 57.8°F14.3°C 54.0°F12.2°C 87% Calm Calm -- 30.03 in1016.9 mb 0.00 in0.0 mm 0.00 in0.0 mm 0.00 in0.0 mm
10:09 PM 57.4°F14.1°C 53.6°F12.0°C 87% 1.1 mph NNE1.8 kmh NNE 1.3 mph2.1 kmh 30.03 in1016.9 mb 0.00 in0.0 mm 0.00 in0.0 mm 0.00 in0.0 mm
10:14 PM 57.1°F13.9°C 53.3°F11.8°C 87% 1.2 mph NNE1.9 kmh NNE 2.1 mph3.4 kmh 30.02 in1016.6 mb 0.00 in0.0 mm 0.00 in0.0 mm 0.00 in0.0 mm
10:19 PM 56.8°F13.8°C 53.3°F11.8°C 88% 0.4 mph NNE0.6 kmh NNE 1.6 mph2.6 kmh 30.02 in1016.6 mb 0.00 in0.0 mm 0.00 in0.0 mm 0.00 in0.0 mm
10:24 PM 56.6°F13.7°C 53.4°F11.9°C 89% Calm Calm -- 30.02 in1016.6 mb 0.00 in0.0 mm 0.00 in0.0 mm 0.00 in0.0 mm
10:29 PM 56.4°F13.6°C 53.2°F11.8°C 89% Calm Calm -- 30.03 in1016.9 mb 0.00 in0.0 mm 0.00 in0.0 mm 0.00 in0.0 mm
10:34 PM 56.2°F13.4°C 53.0°F11.7°C 89% 0.9 mph NNE1.4 kmh NNE 1.8 mph2.9 kmh 30.02 in1016.6 mb 0.00 in0.0 mm 0.00 in0.0 mm 0.00 in0.0 mm
10:39 PM 56.1°F13.4°C 53.2°F11.8°C 90% 1.9 mph N3.1 kmh N 2.6 mph4.2 kmh 30.02 in1016.6 mb 0.00 in0.0 mm 0.00 in0.0 mm 0.00 in0.0 mm
10:44 PM 55.9°F13.3°C 53.0°F11.7°C 90% 1.3 mph N2.1 kmh N 1.6 mph2.6 kmh 30.02 in1016.6 mb 0.00 in0.0 mm 0.00 in0.0 mm 0.00 in0.0 mm
10:49 PM 55.7°F13.2°C 53.1°F11.7°C 91% 0.3 mph N0.5 kmh N 1.3 mph2.1 kmh 30.02 in1016.6 mb 0.00 in0.0 mm 0.00 in0.0 mm 0.00 in0.0 mm
10:54 PM 55.5°F13.1°C 52.9°F11.6°C 91% Calm Calm 1.1 mph1.8 kmh 30.02 in1016.6 mb 0.00 in0.0 mm 0.00 in0.0 mm 0.00 in0.0 mm
10:59 PM 55.4°F13.0°C 52.8°F11.6°C 91% Calm Calm -- 30.02 in1016.6 mb 0.00 in0.0 mm 0.00 in0.0 mm 0.00 in0.0 mm
11:04 PM 55.2°F12.9°C 52.9°F11.6°C 92% Calm Calm -- 30.02 in1016.6 mb 0.00 in0.0 mm 0.00 in0.0 mm 0.00 in0.0 mm
11:09 PM 55.2°F12.9°C 52.9°F11.6°C 92% Calm Calm -- 30.03 in1016.9 mb 0.00 in0.0 mm 0.00 in0.0 mm 0.00 in0.0 mm
11:14 PM 55.0°F12.8°C 53.0°F11.7°C 93% Calm Calm -- 30.03 in1016.9 mb 0.00 in0.0 mm 0.00 in0.0 mm 0.00 in0.0 mm
11:19 PM 54.7°F12.6°C 52.7°F11.5°C 93% Calm Calm -- 30.03 in1016.9 mb 0.00 in0.0 mm 0.00 in0.0 mm 0.00 in0.0 mm
11:24 PM 54.5°F12.5°C 52.5°F11.4°C 93% Calm Calm -- 30.03 in1016.9 mb 0.00 in0.0 mm 0.00 in0.0 mm 0.00 in0.0 mm
11:29 PM 54.2°F12.3°C 52.2°F11.2°C 93% Calm Calm -- 30.02 in1016.6 mb 0.00 in0.0 mm 0.00 in0.0 mm 0.00 in0.0 mm
11:34 PM 54.0°F12.2°C 52.0°F11.1°C 93% Calm Calm -- 30.03 in1016.9 mb 0.00 in0.0 mm 0.00 in0.0 mm 0.00 in0.0 mm
11:39 PM 54.0°F12.2°C 52.0°F11.1°C 93% Calm Calm -- 30.03 in1016.9 mb 0.00 in0.0 mm 0.00 in0.0 mm 0.00 in0.0 mm
11:44 PM 53.7°F12.1°C 52.0°F11.1°C 94% 1.6 mph N2.6 kmh N 1.8 mph2.9 kmh 30.03 in1016.9 mb 0.00 in0.0 mm 0.00 in0.0 mm 0.00 in0.0 mm
11:49 PM 53.5°F11.9°C 51.8°F11.0°C 94% 1.7 mph N2.7 kmh N 2.1 mph3.4 kmh 30.03 in1016.9 mb 0.00 in0.0 mm 0.00 in0.0 mm 0.00 in0.0 mm
11:54 PM 53.1°F11.7°C 51.4°F10.8°C 94% 1.5 mph N2.4 kmh N 1.8 mph2.9 kmh 30.03 in1016.9 mb 0.00 in0.0 mm 0.00 in0.0 mm 0.00 in0.0 mm